createdAt,value
2023-02-05T00:00:38.822Z,93.93
2023-02-05T00:03:05.188Z,93.88
2023-02-05T00:05:32.035Z,93.87
2023-02-05T00:07:58.571Z,93.96
2023-02-05T00:10:24.956Z,93.96
2023-02-05T00:12:51.304Z,93.94
2023-02-05T00:15:17.682Z,93.99
2023-02-05T00:17:44.033Z,94.07
2023-02-05T00:20:11.276Z,94.00
2023-02-05T00:22:37.590Z,93.99
2023-02-05T00:25:04.198Z,93.87
2023-02-05T00:27:30.761Z,94.03
2023-02-05T00:29:57.074Z,93.99
2023-02-05T00:32:23.474Z,93.96
2023-02-05T00:34:49.901Z,94.06
2023-02-05T00:37:16.278Z,93.85
2023-02-05T00:39:42.660Z,94.01
2023-02-05T00:42:09.013Z,94.00
2023-02-05T00:44:35.410Z,94.00
2023-02-05T00:47:02.094Z,93.99
2023-02-05T00:49:28.551Z,93.87
2023-02-05T00:51:54.850Z,93.91
2023-02-05T00:54:21.322Z,94.00
2023-02-05T00:56:47.676Z,93.92
2023-02-05T00:59:13.979Z,94.03
2023-02-05T01:01:40.379Z,94.04
2023-02-05T01:04:06.726Z,94.09
2023-02-05T01:06:33.128Z,94.07
2023-02-05T01:08:59.481Z,94.09
2023-02-05T01:11:25.799Z,94.09
2023-02-05T01:13:52.164Z,94.04
2023-02-05T01:16:18.839Z,94.04
2023-02-05T01:18:46.742Z,94.08
2023-02-05T01:21:13.117Z,94.14
2023-02-05T01:23:39.585Z,94.29
2023-02-05T01:26:06.329Z,94.24
2023-02-05T01:28:32.661Z,94.31
2023-02-05T01:30:59.136Z,94.20
2023-02-05T01:33:25.526Z,94.09
2023-02-05T01:35:51.830Z,94.07
2023-02-05T01:38:18.239Z,94.23
2023-02-05T01:40:44.603Z,94.41
2023-02-05T01:43:16.274Z,94.45
2023-02-05T01:45:50.882Z,94.41
2023-02-05T01:48:22.271Z,94.47
2023-02-05T01:50:55.418Z,94.46
2023-02-05T01:53:26.581Z,94.54
2023-02-05T01:55:57.745Z,94.56
2023-02-05T01:58:27.414Z,94.52
2023-02-05T02:00:53.934Z,94.57
2023-02-05T02:03:21.610Z,94.55
2023-02-05T02:05:47.926Z,94.59
2023-02-05T02:08:14.302Z,94.57
2023-02-05T02:10:43.294Z,94.68
2023-02-05T02:13:12.108Z,94.56
2023-02-05T02:15:40.074Z,94.52
2023-02-05T02:18:25.900Z,94.53
2023-02-05T02:21:22.245Z,94.41
2023-02-05T02:24:08.853Z,94.54
2023-02-05T02:27:05.306Z,94.33
2023-02-05T02:29:56.178Z,94.28
2023-02-05T02:32:38.717Z,94.14
2023-02-05T02:35:11.850Z,94.07
2023-02-05T02:37:50.483Z,93.87
2023-02-05T02:40:26.126Z,93.92
2023-02-05T02:43:05.077Z,93.89
2023-02-05T02:45:35.487Z,93.86
2023-02-05T02:48:04.268Z,93.72
2023-02-05T02:50:35.453Z,93.61
2023-02-05T02:53:09.929Z,93.60
2023-02-05T02:55:39.173Z,93.46
2023-02-05T02:58:11.359Z,93.51
2023-02-05T03:00:41.424Z,93.31
2023-02-05T03:03:12.437Z,93.31
2023-02-05T03:05:42.152Z,93.28
2023-02-05T03:08:23.232Z,93.43
2023-02-05T03:11:01.456Z,93.31
2023-02-05T03:13:28.953Z,93.29
2023-02-05T03:15:56.541Z,93.17
2023-02-05T03:18:24.022Z,93.21
2023-02-05T03:20:57.144Z,93.26
2023-02-05T03:23:25.998Z,93.04
2023-02-05T03:25:52.342Z,93.23
2023-02-05T03:28:19.321Z,93.11
2023-02-05T03:31:03.897Z,93.13
2023-02-05T03:33:46.932Z,93.03
2023-02-05T03:36:25.077Z,92.84
2023-02-05T03:39:18.883Z,92.83
2023-02-05T03:42:08.399Z,92.80
2023-02-05T03:44:48.276Z,92.63
2023-02-05T03:47:38.403Z,92.67
2023-02-05T03:50:29.541Z,92.71
2023-02-05T03:53:18.892Z,92.90
2023-02-05T03:55:50.761Z,92.53
2023-02-05T03:58:20.949Z,92.39
2023-02-05T04:00:48.091Z,92.42
2023-02-05T04:03:15.518Z,92.51
2023-02-05T04:05:41.859Z,92.50
2023-02-05T04:08:08.195Z,92.49
2023-02-05T04:10:34.569Z,92.54
2023-02-05T04:13:01.156Z,92.44
2023-02-05T04:15:27.514Z,92.51
2023-02-05T04:17:53.860Z,92.30
2023-02-05T04:20:20.266Z,92.37
2023-02-05T04:22:46.573Z,92.50
2023-02-05T04:25:12.934Z,92.32
2023-02-05T04:27:39.249Z,92.36
2023-02-05T04:30:06.746Z,92.37
2023-02-05T04:32:33.047Z,92.45
2023-02-05T04:34:59.410Z,92.30
2023-02-05T04:37:25.774Z,92.39
2023-02-05T04:39:52.106Z,92.44
2023-02-05T04:42:18.470Z,92.52
2023-02-05T04:44:44.868Z,92.65
2023-02-05T04:47:11.259Z,92.67
2023-02-05T04:49:37.844Z,92.90
2023-02-05T04:52:04.238Z,92.76
2023-02-05T04:54:31.614Z,92.89
2023-02-05T04:56:57.994Z,93.01
2023-02-05T04:59:24.822Z,93.03
2023-02-05T05:01:51.133Z,93.13
2023-02-05T05:04:17.520Z,93.30
2023-02-05T05:06:43.906Z,93.28
2023-02-05T05:09:10.218Z,93.34
2023-02-05T05:11:36.643Z,93.38
2023-02-05T05:14:02.973Z,93.39
2023-02-05T05:16:29.319Z,93.52
2023-02-05T05:18:55.719Z,93.42
2023-02-05T05:21:22.042Z,93.48
2023-02-05T05:23:48.472Z,93.27
2023-02-05T05:26:16.235Z,93.15
2023-02-05T05:28:42.593Z,92.95
2023-02-05T05:31:16.616Z,92.90
2023-02-05T05:33:43.106Z,92.86
2023-02-05T05:36:09.477Z,92.68
2023-02-05T05:38:35.964Z,92.64
2023-02-05T05:41:21.261Z,92.47
2023-02-05T05:43:48.356Z,92.19
2023-02-05T05:46:23.718Z,92.22
2023-02-05T05:48:52.227Z,91.21
2023-02-05T05:51:19.732Z,91.30
2023-02-05T05:53:47.590Z,91.19
2023-02-05T05:56:14.624Z,90.85
2023-02-05T05:58:41.160Z,90.25
2023-02-05T06:01:08.181Z,89.88
2023-02-05T06:03:35.355Z,89.81
2023-02-05T06:06:03.887Z,90.12
2023-02-05T06:08:32.196Z,89.62
2023-02-05T06:10:59.248Z,89.76
2023-02-05T06:13:26.079Z,89.84
2023-02-05T06:15:54.679Z,89.51
2023-02-05T06:18:23.560Z,89.06
2023-02-05T06:20:50.114Z,89.00
2023-02-05T06:23:20.125Z,88.72
2023-02-05T06:25:46.493Z,88.59
2023-02-05T06:28:12.920Z,88.09
2023-02-05T06:30:39.738Z,88.14
2023-02-05T06:33:06.157Z,88.19
2023-02-05T06:35:32.745Z,87.77
2023-02-05T06:37:59.216Z,87.63
2023-02-05T06:40:27.994Z,87.37
2023-02-05T06:42:54.421Z,87.44
2023-02-05T06:45:22.576Z,87.66
2023-02-05T06:47:49.754Z,87.31
2023-02-05T06:50:16.324Z,87.77
2023-02-05T06:52:42.672Z,88.10
2023-02-05T06:55:09.192Z,88.71
2023-02-05T06:57:35.583Z,89.48
2023-02-05T07:00:02.067Z,90.19
2023-02-05T07:02:28.465Z,90.72
2023-02-05T07:04:54.888Z,91.00
2023-02-05T07:07:21.367Z,91.03
2023-02-05T07:09:47.958Z,91.21
2023-02-05T07:12:14.371Z,91.78
2023-02-05T07:14:41.838Z,91.83
2023-02-05T07:17:08.957Z,91.55
2023-02-05T07:19:36.351Z,91.60
2023-02-05T07:22:02.908Z,91.53
2023-02-05T07:24:29.257Z,91.58
2023-02-05T07:26:55.603Z,91.51
2023-02-05T07:29:22.003Z,91.14
2023-02-05T07:31:52.502Z,90.62
2023-02-05T07:34:19.384Z,90.27
2023-02-05T07:36:45.763Z,90.22
2023-02-05T07:39:12.137Z,89.89
2023-02-05T07:41:38.866Z,89.71
2023-02-05T07:44:08.440Z,89.47
2023-02-05T07:46:35.079Z,89.04
2023-02-05T07:49:01.447Z,88.71
2023-02-05T07:51:27.852Z,88.54
2023-02-05T07:53:54.295Z,88.56
2023-02-05T07:56:25.541Z,88.58
2023-02-05T07:58:51.916Z,87.76
2023-02-05T08:01:18.393Z,87.71
2023-02-05T08:03:44.857Z,87.72
2023-02-05T08:06:14.715Z,87.08
2023-02-05T08:08:41.354Z,87.21
2023-02-05T08:11:08.321Z,86.38
2023-02-05T08:13:34.976Z,86.29
2023-02-05T08:16:05.969Z,86.58
2023-02-05T08:18:32.720Z,86.63
2023-02-05T08:20:59.463Z,86.58
2023-02-05T08:23:26.401Z,86.59
2023-02-05T08:25:57.610Z,86.24
2023-02-05T08:28:29.212Z,86.32
2023-02-05T08:30:56.431Z,86.04
2023-02-05T08:33:23.038Z,86.14
2023-02-05T08:35:49.402Z,86.44
2023-02-05T08:38:15.823Z,86.59
2023-02-05T08:40:42.207Z,86.76
2023-02-05T08:43:08.806Z,86.63
2023-02-05T08:45:35.847Z,87.07
2023-02-05T08:48:02.621Z,86.95
2023-02-05T08:50:29.582Z,86.83
2023-02-05T08:52:56.146Z,86.68
2023-02-05T08:55:22.445Z,86.33
2023-02-05T08:57:48.814Z,86.56
2023-02-05T09:00:15.556Z,87.02
2023-02-05T09:02:43.483Z,86.31
2023-02-05T09:05:10.065Z,86.03
2023-02-05T09:07:38.914Z,86.07
2023-02-05T09:10:12.367Z,85.66
2023-02-05T09:12:39.345Z,86.57
2023-02-05T09:15:06.802Z,86.35
2023-02-05T09:17:33.143Z,86.48
2023-02-05T09:19:59.608Z,85.92
2023-02-05T09:22:25.965Z,85.01
2023-02-05T09:24:52.369Z,85.64
2023-02-05T09:27:18.733Z,85.65
2023-02-05T09:29:45.101Z,84.78
2023-02-05T09:32:11.478Z,84.60
2023-02-05T09:34:37.853Z,83.94
2023-02-05T09:37:04.159Z,83.33
2023-02-05T09:40:17.354Z,84.30
2023-02-05T09:42:25.656Z,83.92
2023-02-05T09:45:15.078Z,83.16
2023-02-05T09:48:01.699Z,82.96
2023-02-05T09:50:30.146Z,82.98
2023-02-05T09:53:03.535Z,83.56
2023-02-05T09:55:34.027Z,83.40
2023-02-05T09:58:04.659Z,82.92
2023-02-05T10:00:42.806Z,82.94
2023-02-05T10:03:43.035Z,81.33
2023-02-05T10:06:36.487Z,80.89
2023-02-05T10:09:20.580Z,79.37
2023-02-05T10:12:02.535Z,78.43
2023-02-05T10:14:50.643Z,79.91
2023-02-05T10:17:39.278Z,78.30
2023-02-05T10:20:28.895Z,80.12
2023-02-05T10:23:30.419Z,79.78
2023-02-05T10:26:02.519Z,78.42
2023-02-05T10:28:48.924Z,79.76
2023-02-05T10:31:36.784Z,79.98
2023-02-05T10:34:28.346Z,80.42
2023-02-05T10:36:54.919Z,80.17
2023-02-05T10:39:26.244Z,79.55
2023-02-05T10:42:07.463Z,80.39
2023-02-05T10:45:03.890Z,80.05
2023-02-05T10:48:08.578Z,80.41
2023-02-05T10:51:04.021Z,79.23
2023-02-05T10:53:31.078Z,79.92
2023-02-05T10:55:59.585Z,79.69
2023-02-05T10:58:43.923Z,79.18
2023-02-05T11:01:28.275Z,78.86
2023-02-05T11:04:10.006Z,79.32
2023-02-05T11:06:40.221Z,78.45
2023-02-05T11:09:25.098Z,78.24
2023-02-05T11:11:59.102Z,77.80
2023-02-05T11:14:40.626Z,78.26
2023-02-05T11:17:24.850Z,77.54
2023-02-05T11:19:54.240Z,77.82
2023-02-05T11:22:36.057Z,77.47
2023-02-05T11:25:15.586Z,78.25
2023-02-05T11:27:50.402Z,76.39
2023-02-05T11:30:49.722Z,76.43
2023-02-05T11:33:24.332Z,77.22
2023-02-05T11:35:54.624Z,76.02
2023-02-05T11:38:33.449Z,76.07
2023-02-05T11:41:03.018Z,76.12
2023-02-05T11:43:40.120Z,76.54
2023-02-05T11:46:09.632Z,76.40
2023-02-05T11:48:44.742Z,77.02
2023-02-05T11:51:15.640Z,76.49
2023-02-05T11:53:58.681Z,76.48
2023-02-05T11:56:26.308Z,76.60
2023-02-05T11:59:03.326Z,76.60
2023-02-05T12:01:34.559Z,76.99
2023-02-05T12:04:04.215Z,76.55
2023-02-05T12:06:42.317Z,76.29
2023-02-05T12:09:14.414Z,77.31
2023-02-05T12:12:06.409Z,76.90
2023-02-05T12:14:44.318Z,76.61
2023-02-05T12:17:20.857Z,76.40
2023-02-05T12:20:14.088Z,75.49
2023-02-05T12:23:22.449Z,76.53
2023-02-05T12:26:07.434Z,75.96
2023-02-05T12:29:10.676Z,75.58
2023-02-05T12:31:55.645Z,76.35
2023-02-05T12:34:31.234Z,76.12
2023-02-05T12:37:14.661Z,76.04
2023-02-05T12:39:52.468Z,75.42
2023-02-05T12:42:40.424Z,74.82
2023-02-05T12:45:27.905Z,75.51
2023-02-05T12:48:32.348Z,75.57
2023-02-05T12:51:36.289Z,75.98
2023-02-05T12:54:24.533Z,75.99
2023-02-05T12:56:59.682Z,75.74
2023-02-05T12:59:49.456Z,75.99
2023-02-05T13:02:34.356Z,75.30
2023-02-05T13:05:12.947Z,74.37
2023-02-05T13:07:54.508Z,74.71
2023-02-05T13:10:28.359Z,74.87
2023-02-05T13:13:00.711Z,74.60
2023-02-05T13:15:37.613Z,74.85
2023-02-05T13:18:11.922Z,74.84
2023-02-05T13:21:10.645Z,75.03
2023-02-05T13:23:59.378Z,74.97
2023-02-05T13:26:53.204Z,75.36
2023-02-05T13:29:23.400Z,74.48
2023-02-05T13:31:55.173Z,75.22
2023-02-05T13:34:23.776Z,75.38
2023-02-05T13:37:27.320Z,75.26
2023-02-05T13:40:04.845Z,75.06
2023-02-05T13:43:05.333Z,75.15
2023-02-05T13:46:04.170Z,74.53
2023-02-05T13:48:49.019Z,75.38
2023-02-05T13:51:50.436Z,74.81
2023-02-05T13:54:38.147Z,74.81
2023-02-05T13:57:04.423Z,75.91
2023-02-05T13:59:39.431Z,74.98
2023-02-05T14:02:37.019Z,75.21
2023-02-05T14:05:05.150Z,74.78
2023-02-05T14:07:35.073Z,75.39
2023-02-05T14:10:02.646Z,75.87
2023-02-05T14:12:34.848Z,75.04
2023-02-05T14:15:16.772Z,75.85
2023-02-05T14:17:43.087Z,75.63
2023-02-05T14:20:24.409Z,75.72
2023-02-05T14:23:01.971Z,74.69
2023-02-05T14:25:38.727Z,75.11
2023-02-05T14:28:20.347Z,74.72
2023-02-05T14:30:50.095Z,75.33
2023-02-05T14:33:29.140Z,75.70
2023-02-05T14:36:21.363Z,75.07
2023-02-05T14:38:50.944Z,75.49
2023-02-05T14:41:20.802Z,75.88
2023-02-05T14:44:18.879Z,75.99
2023-02-05T14:47:00.491Z,76.27
2023-02-05T14:49:28.915Z,76.26
2023-02-05T14:52:00.566Z,76.36
2023-02-05T14:54:34.765Z,76.76
2023-02-05T14:57:50.756Z,77.17
2023-02-05T15:00:36.548Z,76.69
2023-02-05T15:03:06.102Z,76.93
2023-02-05T15:05:46.877Z,77.03
2023-02-05T15:08:27.121Z,77.41
2023-02-05T15:11:15.189Z,77.54
2023-02-05T15:13:43.293Z,77.49
2023-02-05T15:16:12.914Z,77.30
2023-02-05T15:18:47.266Z,77.32
2023-02-05T15:21:27.664Z,77.34
2023-02-05T15:24:02.556Z,76.96
2023-02-05T15:26:37.308Z,77.54
2023-02-05T15:29:28.115Z,77.40
2023-02-05T15:31:59.298Z,77.63
2023-02-05T15:34:37.811Z,77.80
2023-02-05T15:37:06.390Z,78.00
2023-02-05T15:40:11.533Z,78.05
2023-02-05T15:42:44.963Z,78.16
2023-02-05T15:45:28.146Z,78.35
2023-02-05T15:48:05.213Z,78.62
2023-02-05T15:50:34.102Z,78.78
2023-02-05T15:53:01.774Z,78.90
2023-02-05T15:55:29.099Z,78.92
2023-02-05T15:58:05.557Z,79.05
2023-02-05T16:00:34.516Z,79.21
2023-02-05T16:03:03.233Z,79.37
2023-02-05T16:05:31.879Z,79.09
2023-02-05T16:08:01.801Z,79.41
2023-02-05T16:10:30.371Z,79.52
2023-02-05T16:13:06.230Z,79.74
2023-02-05T16:15:41.320Z,80.00
2023-02-05T16:18:27.405Z,79.88
2023-02-05T16:20:58.986Z,79.85
2023-02-05T16:23:33.601Z,80.23
2023-02-05T16:26:07.125Z,80.28
2023-02-05T16:28:48.579Z,80.43
2023-02-05T16:31:21.152Z,80.28
2023-02-05T16:33:56.376Z,80.49
2023-02-05T16:36:32.787Z,80.48
2023-02-05T16:39:02.562Z,80.83
2023-02-05T16:41:36.988Z,80.98
2023-02-05T16:44:08.484Z,81.06
2023-02-05T16:46:36.199Z,81.37
2023-02-05T16:49:24.469Z,81.42
2023-02-05T16:51:50.737Z,81.62
2023-02-05T16:54:19.770Z,81.88
2023-02-05T16:56:55.794Z,82.18
2023-02-05T16:59:35.261Z,82.20
2023-02-05T17:02:03.398Z,82.11
2023-02-05T17:04:39.287Z,81.90
2023-02-05T17:07:17.414Z,82.05
2023-02-05T17:09:43.847Z,82.15
2023-02-05T17:12:22.472Z,82.25
2023-02-05T17:14:57.324Z,82.37
2023-02-05T17:17:25.202Z,82.26
2023-02-05T17:20:17.816Z,82.47
2023-02-05T17:23:14.525Z,82.45
2023-02-05T17:25:42.636Z,82.55
2023-02-05T17:28:19.973Z,82.46
2023-02-05T17:30:48.518Z,82.63
2023-02-05T17:33:21.057Z,82.77
2023-02-05T17:35:47.490Z,82.86
2023-02-05T17:38:14.206Z,82.94
2023-02-05T17:40:41.075Z,83.01
2023-02-05T17:43:08.115Z,83.14
2023-02-05T17:45:37.446Z,83.21
2023-02-05T17:48:04.090Z,83.20
2023-02-05T17:50:31.675Z,83.26
2023-02-05T17:52:58.417Z,83.39
2023-02-05T17:55:24.833Z,83.30
2023-02-05T17:57:51.324Z,83.19
2023-02-05T18:00:26.056Z,83.22
2023-02-05T18:02:53.203Z,83.35
2023-02-05T18:05:20.281Z,83.43
2023-02-05T18:08:06.218Z,83.40
2023-02-05T18:10:32.608Z,83.50
2023-02-05T18:12:59.236Z,83.60
2023-02-05T18:15:26.567Z,83.69
2023-02-05T18:17:53.228Z,83.54
2023-02-05T18:20:21.089Z,83.45
2023-02-05T18:22:49.265Z,83.60
2023-02-05T18:25:15.789Z,83.63
2023-02-05T18:27:42.154Z,83.87
2023-02-05T18:30:09.201Z,83.79
2023-02-05T18:32:35.794Z,83.91
2023-02-05T18:35:02.152Z,83.95
2023-02-05T18:37:28.496Z,84.06
2023-02-05T18:39:55.115Z,83.95
2023-02-05T18:42:23.026Z,84.22
2023-02-05T18:44:49.403Z,84.47
2023-02-05T18:47:15.729Z,84.30
2023-02-05T18:49:43.419Z,84.19
2023-02-05T18:52:11.840Z,84.15
2023-02-05T18:54:38.250Z,84.19
2023-02-05T18:57:05.003Z,84.20
2023-02-05T18:59:31.610Z,84.24
2023-02-05T19:01:57.995Z,84.24
2023-02-05T19:04:26.777Z,84.16
2023-02-05T19:06:54.448Z,84.38
2023-02-05T19:09:22.617Z,84.59
2023-02-05T19:11:49.978Z,84.75
2023-02-05T19:14:17.948Z,84.71
2023-02-05T19:16:45.022Z,84.77
2023-02-05T19:19:16.872Z,84.72
2023-02-05T19:21:44.898Z,84.88
2023-02-05T19:24:13.232Z,84.94
2023-02-05T19:26:43.438Z,84.99
2023-02-05T19:29:15.426Z,85.10
2023-02-05T19:31:42.439Z,85.28
2023-02-05T19:34:09.521Z,85.33
2023-02-05T19:36:36.818Z,85.43
2023-02-05T19:39:06.097Z,85.44
2023-02-05T19:41:34.761Z,85.60
2023-02-05T19:44:06.077Z,85.54
2023-02-05T19:46:36.664Z,85.78
2023-02-05T19:49:06.864Z,85.64
2023-02-05T19:51:34.124Z,85.79
2023-02-05T19:54:02.934Z,85.84
2023-02-05T19:56:30.451Z,85.92
2023-02-05T19:58:57.619Z,86.12
2023-02-05T20:01:29.687Z,86.14
2023-02-05T20:03:58.978Z,86.14
2023-02-05T20:06:28.469Z,86.45
2023-02-05T20:08:55.820Z,86.30
2023-02-05T20:11:22.390Z,86.46
2023-02-05T20:13:49.120Z,86.48
2023-02-05T20:16:21.445Z,86.37
2023-02-05T20:18:53.691Z,86.58
2023-02-05T20:21:20.613Z,86.55
2023-02-05T20:23:48.183Z,86.53
2023-02-05T20:26:19.395Z,86.72
2023-02-05T20:29:06.081Z,86.60
2023-02-05T20:31:37.962Z,86.68
2023-02-05T20:34:07.354Z,86.86
2023-02-05T20:36:35.018Z,86.93
2023-02-05T20:39:04.895Z,87.06
2023-02-05T20:41:31.565Z,87.01
2023-02-05T20:43:58.181Z,87.02
2023-02-05T20:46:25.648Z,87.03
2023-02-05T20:48:52.232Z,87.15
2023-02-05T20:51:20.518Z,87.21
2023-02-05T20:53:46.954Z,87.48
2023-02-05T20:56:15.929Z,87.46
2023-02-05T20:58:42.736Z,87.55
2023-02-05T21:01:18.169Z,87.63
2023-02-05T21:03:47.442Z,87.85
2023-02-05T21:06:15.098Z,87.75
2023-02-05T21:08:43.515Z,87.93
2023-02-05T21:11:10.237Z,87.80
2023-02-05T21:13:36.881Z,87.98
2023-02-05T21:16:04.220Z,87.91
2023-02-05T21:18:31.591Z,87.93
2023-02-05T21:21:07.859Z,87.89
2023-02-05T21:23:34.808Z,88.00
2023-02-05T21:26:01.910Z,87.84
2023-02-05T21:28:28.730Z,87.81
2023-02-05T21:31:03.043Z,87.97
2023-02-05T21:33:29.779Z,87.84
2023-02-05T21:35:56.371Z,88.05
2023-02-05T21:38:23.159Z,88.25
2023-02-05T21:40:50.298Z,88.02
2023-02-05T21:43:16.697Z,87.82
2023-02-05T21:45:43.128Z,87.62
2023-02-05T21:48:09.728Z,87.66
2023-02-05T21:50:38.504Z,87.82
2023-02-05T21:53:06.399Z,87.74
2023-02-05T21:55:33.723Z,87.90
2023-02-05T21:58:00.156Z,87.91
2023-02-05T22:00:26.478Z,88.14
2023-02-05T22:02:52.804Z,88.18
2023-02-05T22:05:19.118Z,88.08
2023-02-05T22:07:45.468Z,88.07
2023-02-05T22:10:12.041Z,87.97
2023-02-05T22:12:38.349Z,87.99
2023-02-05T22:15:04.967Z,87.81
2023-02-05T22:17:31.286Z,88.34
2023-02-05T22:19:57.581Z,88.52
2023-02-05T22:22:23.885Z,88.69
2023-02-05T22:24:52.579Z,88.53
2023-02-05T22:27:19.526Z,89.05
2023-02-05T22:29:46.832Z,88.86
2023-02-05T22:32:13.231Z,89.17
2023-02-05T22:34:42.042Z,89.54
2023-02-05T22:37:09.780Z,89.46
2023-02-05T22:39:36.102Z,89.37
2023-02-05T22:42:04.436Z,89.20
2023-02-05T22:44:31.642Z,89.34
2023-02-05T22:46:58.035Z,89.18
2023-02-05T22:49:24.337Z,89.15
2023-02-05T22:51:52.075Z,89.64
2023-02-05T22:54:18.469Z,89.62
2023-02-05T22:56:45.630Z,89.79
2023-02-05T22:59:12.546Z,89.68
2023-02-05T23:01:39.048Z,89.67
2023-02-05T23:04:07.355Z,89.56
2023-02-05T23:06:36.397Z,89.60
2023-02-05T23:09:10.558Z,89.52
2023-02-05T23:11:37.549Z,89.50
2023-02-05T23:14:05.164Z,89.79
2023-02-05T23:16:37.349Z,89.80
2023-02-05T23:19:07.451Z,90.00
2023-02-05T23:21:35.551Z,90.21
2023-02-05T23:24:02.682Z,90.26
2023-02-05T23:26:33.207Z,90.18
2023-02-05T23:29:00.414Z,90.24
2023-02-05T23:31:27.993Z,90.16
2023-02-05T23:33:55.203Z,90.28
2023-02-05T23:36:21.546Z,90.28
2023-02-05T23:38:48.050Z,90.14
2023-02-05T23:41:14.535Z,90.28
2023-02-05T23:43:40.871Z,90.39
2023-02-05T23:46:08.609Z,90.20
2023-02-05T23:48:35.189Z,90.37
2023-02-05T23:51:01.904Z,90.54
2023-02-05T23:53:28.253Z,90.40
2023-02-05T23:55:54.678Z,90.48
2023-02-05T23:58:23.811Z,90.25
